sensor_id;sensor_type;location;lat;lon;timestamp;P1;durP1;ratioP1;P2;durP2;ratioP2
69629;SDS011;56857;52.212;5.496;2023-01-16T00:01:42;8.68;;;2.50;;
69629;SDS011;56857;52.212;5.496;2023-01-16T00:04:08;7.95;;;2.90;;
69629;SDS011;56857;52.212;5.496;2023-01-16T00:06:33;8.25;;;3.60;;
69629;SDS011;56857;52.212;5.496;2023-01-16T00:08:59;8.52;;;2.88;;
69629;SDS011;56857;52.212;5.496;2023-01-16T00:11:25;12.52;;;4.63;;
69629;SDS011;56857;52.212;5.496;2023-01-16T00:13:50;8.73;;;3.33;;
69629;SDS011;56857;52.212;5.496;2023-01-16T00:16:15;8.88;;;3.13;;
69629;SDS011;56857;52.212;5.496;2023-01-16T00:18:41;10.15;;;4.57;;
69629;SDS011;56857;52.212;5.496;2023-01-16T00:21:06;9.85;;;3.75;;
69629;SDS011;56857;52.212;5.496;2023-01-16T00:23:31;7.50;;;2.75;;
69629;SDS011;56857;52.212;5.496;2023-01-16T00:25:56;9.27;;;3.85;;
69629;SDS011;56857;52.212;5.496;2023-01-16T00:28:24;11.55;;;3.60;;
69629;SDS011;56857;52.212;5.496;2023-01-16T00:30:50;9.30;;;3.30;;
69629;SDS011;56857;52.212;5.496;2023-01-16T00:33:15;7.20;;;3.47;;
69629;SDS011;56857;52.212;5.496;2023-01-16T00:35:40;7.50;;;4.32;;
69629;SDS011;56857;52.212;5.496;2023-01-16T00:38:06;7.20;;;3.37;;
69629;SDS011;56857;52.212;5.496;2023-01-16T00:40:31;9.32;;;2.88;;
69629;SDS011;56857;52.212;5.496;2023-01-16T00:42:56;12.07;;;4.10;;
69629;SDS011;56857;52.212;5.496;2023-01-16T00:45:22;6.72;;;3.45;;
69629;SDS011;56857;52.212;5.496;2023-01-16T00:47:47;7.40;;;4.10;;
69629;SDS011;56857;52.212;5.496;2023-01-16T00:50:14;8.02;;;4.30;;
69629;SDS011;56857;52.212;5.496;2023-01-16T00:52:39;10.07;;;3.75;;
69629;SDS011;56857;52.212;5.496;2023-01-16T00:55:05;6.70;;;3.22;;
69629;SDS011;56857;52.212;5.496;2023-01-16T00:57:30;7.68;;;4.03;;
69629;SDS011;56857;52.212;5.496;2023-01-16T00:59:56;7.60;;;3.42;;
69629;SDS011;56857;52.212;5.496;2023-01-16T01:02:23;7.53;;;3.53;;
69629;SDS011;56857;52.212;5.496;2023-01-16T01:04:48;8.45;;;4.72;;
69629;SDS011;56857;52.212;5.496;2023-01-16T01:07:13;7.53;;;4.60;;
69629;SDS011;56857;52.212;5.496;2023-01-16T01:09:39;10.63;;;5.22;;
69629;SDS011;56857;52.212;5.496;2023-01-16T01:12:04;8.68;;;4.57;;
69629;SDS011;56857;52.212;5.496;2023-01-16T01:14:29;7.85;;;4.70;;
69629;SDS011;56857;52.212;5.496;2023-01-16T01:16:55;8.43;;;5.20;;
69629;SDS011;56857;52.212;5.496;2023-01-16T01:19:20;10.00;;;4.95;;
69629;SDS011;56857;52.212;5.496;2023-01-16T01:21:45;10.35;;;5.47;;
69629;SDS011;56857;52.212;5.496;2023-01-16T01:24:11;11.73;;;6.40;;
69629;SDS011;56857;52.212;5.496;2023-01-16T01:26:37;11.93;;;6.47;;
69629;SDS011;56857;52.212;5.496;2023-01-16T01:29:03;13.48;;;6.97;;
69629;SDS011;56857;52.212;5.496;2023-01-16T01:31:28;13.38;;;7.35;;
69629;SDS011;56857;52.212;5.496;2023-01-16T01:33:53;13.77;;;9.07;;
69629;SDS011;56857;52.212;5.496;2023-01-16T01:36:19;13.32;;;7.53;;
69629;SDS011;56857;52.212;5.496;2023-01-16T01:38:47;15.97;;;8.30;;
69629;SDS011;56857;52.212;5.496;2023-01-16T01:41:16;16.70;;;9.32;;
69629;SDS011;56857;52.212;5.496;2023-01-16T01:43:50;15.90;;;8.73;;
69629;SDS011;56857;52.212;5.496;2023-01-16T01:46:27;16.40;;;8.95;;
69629;SDS011;56857;52.212;5.496;2023-01-16T01:49:03;15.23;;;8.80;;
69629;SDS011;56857;52.212;5.496;2023-01-16T01:51:42;18.83;;;8.80;;
69629;SDS011;56857;52.212;5.496;2023-01-16T01:54:12;15.98;;;10.07;;
69629;SDS011;56857;52.212;5.496;2023-01-16T01:57:01;17.25;;;9.95;;
69629;SDS011;56857;52.212;5.496;2023-01-16T01:59:35;16.52;;;9.88;;
69629;SDS011;56857;52.212;5.496;2023-01-16T02:02:04;19.40;;;10.52;;
69629;SDS011;56857;52.212;5.496;2023-01-16T02:04:34;19.00;;;10.48;;
69629;SDS011;56857;52.212;5.496;2023-01-16T02:07:11;18.70;;;10.48;;
69629;SDS011;56857;52.212;5.496;2023-01-16T02:09:40;16.50;;;9.85;;
69629;SDS011;56857;52.212;5.496;2023-01-16T02:12:14;19.13;;;10.73;;
69629;SDS011;56857;52.212;5.496;2023-01-16T02:14:43;16.90;;;10.32;;
69629;SDS011;56857;52.212;5.496;2023-01-16T02:17:12;17.95;;;10.25;;
69629;SDS011;56857;52.212;5.496;2023-01-16T02:20:42;16.60;;;10.40;;
69629;SDS011;56857;52.212;5.496;2023-01-16T02:31:37;15.10;;;9.35;;
69629;SDS011;56857;52.212;5.496;2023-01-16T02:37:23;16.73;;;8.63;;
69629;SDS011;56857;52.212;5.496;2023-01-16T02:45:49;16.05;;;8.23;;
69629;SDS011;56857;52.212;5.496;2023-01-16T02:48:20;15.98;;;8.68;;
69629;SDS011;56857;52.212;5.496;2023-01-16T02:56:33;12.60;;;5.82;;
69629;SDS011;56857;52.212;5.496;2023-01-16T02:59:06;14.40;;;6.10;;
69629;SDS011;56857;52.212;5.496;2023-01-16T03:01:32;11.98;;;6.38;;
69629;SDS011;56857;52.212;5.496;2023-01-16T03:06:36;11.93;;;5.90;;
69629;SDS011;56857;52.212;5.496;2023-01-16T03:20:50;11.23;;;5.07;;
69629;SDS011;56857;52.212;5.496;2023-01-16T03:26:28;11.80;;;5.00;;
69629;SDS011;56857;52.212;5.496;2023-01-16T03:29:18;10.88;;;4.03;;
69629;SDS011;56857;52.212;5.496;2023-01-16T03:37:11;9.50;;;4.38;;
69629;SDS011;56857;52.212;5.496;2023-01-16T03:39:53;7.63;;;3.13;;
69629;SDS011;56857;52.212;5.496;2023-01-16T03:42:24;7.78;;;4.15;;
69629;SDS011;56857;52.212;5.496;2023-01-16T03:45:05;10.70;;;3.72;;
69629;SDS011;56857;52.212;5.496;2023-01-16T03:47:39;8.50;;;3.90;;
69629;SDS011;56857;52.212;5.496;2023-01-16T03:50:10;6.47;;;3.58;;
69629;SDS011;56857;52.212;5.496;2023-01-16T03:52:41;9.32;;;3.53;;
69629;SDS011;56857;52.212;5.496;2023-01-16T03:55:20;8.18;;;2.97;;
69629;SDS011;56857;52.212;5.496;2023-01-16T03:57:55;10.75;;;4.03;;
69629;SDS011;56857;52.212;5.496;2023-01-16T04:00:25;8.73;;;4.00;;
69629;SDS011;56857;52.212;5.496;2023-01-16T04:03:24;7.53;;;3.28;;
69629;SDS011;56857;52.212;5.496;2023-01-16T04:05:58;7.53;;;3.08;;
69629;SDS011;56857;52.212;5.496;2023-01-16T04:08:34;11.20;;;3.50;;
69629;SDS011;56857;52.212;5.496;2023-01-16T04:11:03;7.10;;;3.50;;
69629;SDS011;56857;52.212;5.496;2023-01-16T04:13:33;9.27;;;2.92;;
69629;SDS011;56857;52.212;5.496;2023-01-16T04:16:02;7.95;;;2.80;;
69629;SDS011;56857;52.212;5.496;2023-01-16T04:18:33;8.57;;;3.03;;
69629;SDS011;56857;52.212;5.496;2023-01-16T04:21:00;8.75;;;2.78;;
69629;SDS011;56857;52.212;5.496;2023-01-16T04:23:29;9.40;;;2.90;;
69629;SDS011;56857;52.212;5.496;2023-01-16T04:25:54;6.20;;;2.58;;
69629;SDS011;56857;52.212;5.496;2023-01-16T04:28:20;5.93;;;2.50;;
69629;SDS011;56857;52.212;5.496;2023-01-16T04:30:46;7.72;;;2.90;;
69629;SDS011;56857;52.212;5.496;2023-01-16T04:33:11;5.93;;;2.17;;
69629;SDS011;56857;52.212;5.496;2023-01-16T04:35:38;9.82;;;3.50;;
69629;SDS011;56857;52.212;5.496;2023-01-16T04:38:05;7.78;;;2.63;;
69629;SDS011;56857;52.212;5.496;2023-01-16T04:40:30;9.95;;;2.67;;
69629;SDS011;56857;52.212;5.496;2023-01-16T04:42:57;8.25;;;2.50;;
69629;SDS011;56857;52.212;5.496;2023-01-16T04:45:22;8.63;;;2.90;;
69629;SDS011;56857;52.212;5.496;2023-01-16T04:47:49;8.93;;;3.05;;
69629;SDS011;56857;52.212;5.496;2023-01-16T04:50:16;9.38;;;2.60;;
69629;SDS011;56857;52.212;5.496;2023-01-16T04:52:42;8.95;;;2.38;;
69629;SDS011;56857;52.212;5.496;2023-01-16T04:55:07;6.53;;;2.50;;
69629;SDS011;56857;52.212;5.496;2023-01-16T04:57:34;6.80;;;2.88;;
69629;SDS011;56857;52.212;5.496;2023-01-16T04:59:59;6.90;;;2.85;;
69629;SDS011;56857;52.212;5.496;2023-01-16T05:02:24;6.43;;;2.13;;
69629;SDS011;56857;52.212;5.496;2023-01-16T05:07:15;7.77;;;2.77;;
69629;SDS011;56857;52.212;5.496;2023-01-16T05:09:42;9.45;;;2.90;;
69629;SDS011;56857;52.212;5.496;2023-01-16T05:12:10;7.53;;;2.35;;
69629;SDS011;56857;52.212;5.496;2023-01-16T05:14:35;6.80;;;2.75;;
69629;SDS011;56857;52.212;5.496;2023-01-16T05:17:01;6.20;;;2.37;;
69629;SDS011;56857;52.212;5.496;2023-01-16T05:19:27;6.57;;;2.13;;
69629;SDS011;56857;52.212;5.496;2023-01-16T05:21:52;6.47;;;2.53;;
69629;SDS011;56857;52.212;5.496;2023-01-16T05:24:17;8.02;;;2.50;;
69629;SDS011;56857;52.212;5.496;2023-01-16T05:26:43;7.20;;;3.20;;
69629;SDS011;56857;52.212;5.496;2023-01-16T05:29:10;10.70;;;2.58;;
69629;SDS011;56857;52.212;5.496;2023-01-16T05:31:36;11.32;;;2.97;;
69629;SDS011;56857;52.212;5.496;2023-01-16T05:34:01;5.60;;;1.85;;
69629;SDS011;56857;52.212;5.496;2023-01-16T05:36:27;8.60;;;3.00;;
69629;SDS011;56857;52.212;5.496;2023-01-16T05:38:52;7.65;;;2.78;;
69629;SDS011;56857;52.212;5.496;2023-01-16T05:41:17;8.03;;;2.53;;
69629;SDS011;56857;52.212;5.496;2023-01-16T05:43:43;6.80;;;2.00;;
69629;SDS011;56857;52.212;5.496;2023-01-16T05:46:08;9.45;;;3.10;;
69629;SDS011;56857;52.212;5.496;2023-01-16T05:48:34;9.25;;;2.70;;
69629;SDS011;56857;52.212;5.496;2023-01-16T05:51:00;5.57;;;2.25;;
69629;SDS011;56857;52.212;5.496;2023-01-16T05:53:26;6.05;;;2.58;;
69629;SDS011;56857;52.212;5.496;2023-01-16T05:55:51;7.63;;;2.58;;
69629;SDS011;56857;52.212;5.496;2023-01-16T05:58:19;7.50;;;2.47;;
69629;SDS011;56857;52.212;5.496;2023-01-16T06:00:45;9.02;;;2.28;;
69629;SDS011;56857;52.212;5.496;2023-01-16T06:03:10;7.10;;;2.75;;
69629;SDS011;56857;52.212;5.496;2023-01-16T06:05:36;7.03;;;2.25;;
69629;SDS011;56857;52.212;5.496;2023-01-16T06:08:01;9.25;;;2.47;;
69629;SDS011;56857;52.212;5.496;2023-01-16T06:10:29;8.15;;;2.13;;
69629;SDS011;56857;52.212;5.496;2023-01-16T06:12:55;6.32;;;2.85;;
69629;SDS011;56857;52.212;5.496;2023-01-16T06:15:22;10.20;;;2.97;;
69629;SDS011;56857;52.212;5.496;2023-01-16T06:17:48;8.20;;;2.70;;
69629;SDS011;56857;52.212;5.496;2023-01-16T06:20:14;6.22;;;2.75;;
69629;SDS011;56857;52.212;5.496;2023-01-16T06:22:40;6.07;;;2.50;;
69629;SDS011;56857;52.212;5.496;2023-01-16T06:25:16;5.90;;;2.95;;
69629;SDS011;56857;52.212;5.496;2023-01-16T06:27:49;7.47;;;2.80;;
69629;SDS011;56857;52.212;5.496;2023-01-16T06:30:16;9.40;;;2.63;;
69629;SDS011;56857;52.212;5.496;2023-01-16T06:32:42;9.50;;;3.50;;
69629;SDS011;56857;52.212;5.496;2023-01-16T06:35:09;7.20;;;2.40;;
69629;SDS011;56857;52.212;5.496;2023-01-16T06:37:35;6.72;;;2.33;;
69629;SDS011;56857;52.212;5.496;2023-01-16T06:40:07;8.77;;;1.88;;
69629;SDS011;56857;52.212;5.496;2023-01-16T06:42:42;7.78;;;3.38;;
69629;SDS011;56857;52.212;5.496;2023-01-16T06:45:08;8.02;;;2.60;;
69629;SDS011;56857;52.212;5.496;2023-01-16T06:47:34;6.72;;;2.78;;
69629;SDS011;56857;52.212;5.496;2023-01-16T06:50:03;12.02;;;3.03;;
69629;SDS011;56857;52.212;5.496;2023-01-16T06:52:34;10.68;;;2.80;;
69629;SDS011;56857;52.212;5.496;2023-01-16T06:57:55;8.93;;;2.92;;
69629;SDS011;56857;52.212;5.496;2023-01-16T07:00:25;6.22;;;2.83;;
69629;SDS011;56857;52.212;5.496;2023-01-16T07:02:56;9.02;;;2.83;;
69629;SDS011;56857;52.212;5.496;2023-01-16T07:05:26;5.97;;;2.70;;
69629;SDS011;56857;52.212;5.496;2023-01-16T07:07:53;6.03;;;2.75;;
69629;SDS011;56857;52.212;5.496;2023-01-16T07:10:20;8.32;;;2.88;;
69629;SDS011;56857;52.212;5.496;2023-01-16T07:12:46;11.18;;;2.83;;
69629;SDS011;56857;52.212;5.496;2023-01-16T07:15:16;10.82;;;3.40;;
69629;SDS011;56857;52.212;5.496;2023-01-16T07:17:42;9.38;;;3.13;;
69629;SDS011;56857;52.212;5.496;2023-01-16T07:20:09;7.10;;;2.70;;
69629;SDS011;56857;52.212;5.496;2023-01-16T07:22:35;7.18;;;3.15;;
69629;SDS011;56857;52.212;5.496;2023-01-16T07:25:06;7.72;;;2.78;;
69629;SDS011;56857;52.212;5.496;2023-01-16T07:27:35;7.03;;;2.60;;
69629;SDS011;56857;52.212;5.496;2023-01-16T07:30:01;7.35;;;2.40;;
69629;SDS011;56857;52.212;5.496;2023-01-16T07:32:32;8.93;;;2.95;;
69629;SDS011;56857;52.212;5.496;2023-01-16T07:35:00;6.82;;;2.53;;
69629;SDS011;56857;52.212;5.496;2023-01-16T07:37:26;5.80;;;2.53;;
69629;SDS011;56857;52.212;5.496;2023-01-16T07:39:52;5.82;;;2.58;;
69629;SDS011;56857;52.212;5.496;2023-01-16T07:42:18;6.43;;;2.47;;
69629;SDS011;56857;52.212;5.496;2023-01-16T07:44:43;6.70;;;2.30;;
69629;SDS011;56857;52.212;5.496;2023-01-16T07:49:38;7.07;;;2.42;;
69629;SDS011;56857;52.212;5.496;2023-01-16T07:52:05;8.77;;;2.95;;
69629;SDS011;56857;52.212;5.496;2023-01-16T07:54:37;6.00;;;2.53;;
69629;SDS011;56857;52.212;5.496;2023-01-16T07:59:31;7.30;;;2.63;;
69629;SDS011;56857;52.212;5.496;2023-01-16T08:01:56;7.00;;;2.72;;
69629;SDS011;56857;52.212;5.496;2023-01-16T08:04:21;5.28;;;2.63;;
69629;SDS011;56857;52.212;5.496;2023-01-16T08:06:47;6.35;;;3.05;;
69629;SDS011;56857;52.212;5.496;2023-01-16T08:09:19;6.63;;;2.75;;
69629;SDS011;56857;52.212;5.496;2023-01-16T08:11:46;9.23;;;4.55;;
69629;SDS011;56857;52.212;5.496;2023-01-16T08:14:13;5.90;;;3.20;;
69629;SDS011;56857;52.212;5.496;2023-01-16T08:16:38;7.88;;;4.03;;
69629;SDS011;56857;52.212;5.496;2023-01-16T08:19:07;7.68;;;2.90;;
69629;SDS011;56857;52.212;5.496;2023-01-16T08:21:33;5.85;;;2.78;;
69629;SDS011;56857;52.212;5.496;2023-01-16T08:23:58;8.85;;;4.53;;
69629;SDS011;56857;52.212;5.496;2023-01-16T08:26:24;8.93;;;3.90;;
69629;SDS011;56857;52.212;5.496;2023-01-16T08:28:49;6.82;;;3.40;;
69629;SDS011;56857;52.212;5.496;2023-01-16T08:31:15;6.40;;;3.63;;
69629;SDS011;56857;52.212;5.496;2023-01-16T08:33:42;8.93;;;4.20;;
69629;SDS011;56857;52.212;5.496;2023-01-16T08:36:09;8.43;;;4.15;;
69629;SDS011;56857;52.212;5.496;2023-01-16T08:38:36;8.93;;;4.10;;
69629;SDS011;56857;52.212;5.496;2023-01-16T08:41:01;8.07;;;3.72;;
69629;SDS011;56857;52.212;5.496;2023-01-16T08:43:27;7.45;;;3.30;;
69629;SDS011;56857;52.212;5.496;2023-01-16T08:45:52;8.93;;;4.03;;
69629;SDS011;56857;52.212;5.496;2023-01-16T08:48:23;8.48;;;3.88;;
69629;SDS011;56857;52.212;5.496;2023-01-16T08:50:50;10.00;;;4.55;;
69629;SDS011;56857;52.212;5.496;2023-01-16T08:53:16;8.20;;;3.50;;
69629;SDS011;56857;52.212;5.496;2023-01-16T08:55:41;6.53;;;3.80;;
69629;SDS011;56857;52.212;5.496;2023-01-16T08:58:07;9.13;;;3.63;;
69629;SDS011;56857;52.212;5.496;2023-01-16T09:00:33;6.40;;;3.20;;
69629;SDS011;56857;52.212;5.496;2023-01-16T09:02:58;7.25;;;3.60;;
69629;SDS011;56857;52.212;5.496;2023-01-16T09:05:24;7.05;;;2.83;;
69629;SDS011;56857;52.212;5.496;2023-01-16T09:07:50;7.03;;;3.42;;
69629;SDS011;56857;52.212;5.496;2023-01-16T09:10:16;6.22;;;3.35;;
69629;SDS011;56857;52.212;5.496;2023-01-16T09:12:41;7.05;;;3.25;;
69629;SDS011;56857;52.212;5.496;2023-01-16T09:15:07;6.00;;;3.40;;
69629;SDS011;56857;52.212;5.496;2023-01-16T09:17:33;5.97;;;3.63;;
69629;SDS011;56857;52.212;5.496;2023-01-16T09:19:59;7.32;;;3.72;;
69629;SDS011;56857;52.212;5.496;2023-01-16T09:22:26;8.85;;;3.30;;
69629;SDS011;56857;52.212;5.496;2023-01-16T09:24:52;6.20;;;3.00;;
69629;SDS011;56857;52.212;5.496;2023-01-16T09:27:20;6.13;;;2.80;;
69629;SDS011;56857;52.212;5.496;2023-01-16T09:29:45;7.05;;;2.80;;
69629;SDS011;56857;52.212;5.496;2023-01-16T09:32:11;6.75;;;4.13;;
69629;SDS011;56857;52.212;5.496;2023-01-16T09:34:36;5.85;;;2.97;;
69629;SDS011;56857;52.212;5.496;2023-01-16T09:37:03;7.00;;;3.95;;
69629;SDS011;56857;52.212;5.496;2023-01-16T09:39:29;7.00;;;3.05;;
69629;SDS011;56857;52.212;5.496;2023-01-16T09:42:31;5.38;;;2.78;;
69629;SDS011;56857;52.212;5.496;2023-01-16T09:44:59;6.80;;;3.10;;
69629;SDS011;56857;52.212;5.496;2023-01-16T09:47:29;8.60;;;3.05;;
69629;SDS011;56857;52.212;5.496;2023-01-16T09:50:04;7.68;;;3.22;;
69629;SDS011;56857;52.212;5.496;2023-01-16T09:52:37;8.98;;;3.10;;
69629;SDS011;56857;52.212;5.496;2023-01-16T09:55:22;8.68;;;3.72;;
69629;SDS011;56857;52.212;5.496;2023-01-16T10:00:18;7.35;;;3.28;;
69629;SDS011;56857;52.212;5.496;2023-01-16T10:02:46;8.10;;;3.15;;
69629;SDS011;56857;52.212;5.496;2023-01-16T10:05:12;8.03;;;3.50;;
69629;SDS011;56857;52.212;5.496;2023-01-16T10:12:55;7.68;;;3.38;;
69629;SDS011;56857;52.212;5.496;2023-01-16T10:24:18;6.55;;;2.92;;
69629;SDS011;56857;52.212;5.496;2023-01-16T10:27:19;7.50;;;3.42;;
69629;SDS011;56857;52.212;5.496;2023-01-16T10:30:04;5.43;;;2.55;;
69629;SDS011;56857;52.212;5.496;2023-01-16T10:37:53;6.75;;;3.28;;
69629;SDS011;56857;52.212;5.496;2023-01-16T10:40:24;6.03;;;3.03;;
69629;SDS011;56857;52.212;5.496;2023-01-16T10:42:55;4.90;;;2.38;;
69629;SDS011;56857;52.212;5.496;2023-01-16T10:45:35;6.35;;;3.03;;
69629;SDS011;56857;52.212;5.496;2023-01-16T10:48:01;5.78;;;3.20;;
69629;SDS011;56857;52.212;5.496;2023-01-16T10:50:27;5.72;;;2.75;;
69629;SDS011;56857;52.212;5.496;2023-01-16T10:52:53;4.45;;;2.55;;
69629;SDS011;56857;52.212;5.496;2023-01-16T10:55:18;3.80;;;1.83;;
69629;SDS011;56857;52.212;5.496;2023-01-16T10:57:45;4.97;;;2.58;;
69629;SDS011;56857;52.212;5.496;2023-01-16T11:00:16;3.70;;;2.00;;
69629;SDS011;56857;52.212;5.496;2023-01-16T11:02:46;4.45;;;2.20;;
69629;SDS011;56857;52.212;5.496;2023-01-16T11:05:31;5.10;;;3.17;;
69629;SDS011;56857;52.212;5.496;2023-01-16T11:08:12;4.18;;;2.30;;
69629;SDS011;56857;52.212;5.496;2023-01-16T11:10:40;4.75;;;2.00;;
69629;SDS011;56857;52.212;5.496;2023-01-16T11:16:02;4.38;;;2.45;;
69629;SDS011;56857;52.212;5.496;2023-01-16T11:18:49;4.10;;;2.15;;
69629;SDS011;56857;52.212;5.496;2023-01-16T11:21:16;5.70;;;3.35;;
69629;SDS011;56857;52.212;5.496;2023-01-16T11:23:48;5.10;;;2.20;;
69629;SDS011;56857;52.212;5.496;2023-01-16T11:26:16;3.70;;;2.00;;
69629;SDS011;56857;52.212;5.496;2023-01-16T11:28:42;4.20;;;2.60;;
69629;SDS011;56857;52.212;5.496;2023-01-16T11:31:24;5.72;;;2.20;;
69629;SDS011;56857;52.212;5.496;2023-01-16T11:33:52;4.50;;;2.33;;
69629;SDS011;56857;52.212;5.496;2023-01-16T11:36:22;4.90;;;2.40;;
69629;SDS011;56857;52.212;5.496;2023-01-16T11:38:49;4.72;;;2.33;;
69629;SDS011;56857;52.212;5.496;2023-01-16T11:41:17;6.03;;;2.35;;
69629;SDS011;56857;52.212;5.496;2023-01-16T11:43:44;6.13;;;2.28;;
69629;SDS011;56857;52.212;5.496;2023-01-16T11:46:31;6.53;;;3.13;;
69629;SDS011;56857;52.212;5.496;2023-01-16T11:49:03;4.45;;;2.42;;
69629;SDS011;56857;52.212;5.496;2023-01-16T11:51:38;5.50;;;3.60;;
69629;SDS011;56857;52.212;5.496;2023-01-16T11:54:08;4.68;;;2.00;;
69629;SDS011;56857;52.212;5.496;2023-01-16T12:02:21;5.47;;;2.55;;
69629;SDS011;56857;52.212;5.496;2023-01-16T12:07:47;5.40;;;2.35;;
69629;SDS011;56857;52.212;5.496;2023-01-16T12:10:34;4.80;;;2.65;;
69629;SDS011;56857;52.212;5.496;2023-01-16T12:13:33;4.82;;;2.58;;
69629;SDS011;56857;52.212;5.496;2023-01-16T12:22:08;4.07;;;2.58;;
69629;SDS011;56857;52.212;5.496;2023-01-16T12:27:52;3.85;;;2.40;;
69629;SDS011;56857;52.212;5.496;2023-01-16T12:35:39;4.38;;;2.20;;
69629;SDS011;56857;52.212;5.496;2023-01-16T12:38:17;3.70;;;2.10;;
69629;SDS011;56857;52.212;5.496;2023-01-16T12:43:37;4.50;;;2.10;;
69629;SDS011;56857;52.212;5.496;2023-01-16T12:55:05;5.00;;;2.13;;
69629;SDS011;56857;52.212;5.496;2023-01-16T13:00:32;4.10;;;2.05;;
69629;SDS011;56857;52.212;5.496;2023-01-16T13:03:13;4.30;;;2.17;;
69629;SDS011;56857;52.212;5.496;2023-01-16T13:05:49;3.17;;;1.67;;
69629;SDS011;56857;52.212;5.496;2023-01-16T13:08:33;5.13;;;2.08;;
69629;SDS011;56857;52.212;5.496;2023-01-16T13:11:14;2.58;;;1.52;;
69629;SDS011;56857;52.212;5.496;2023-01-16T13:13:55;3.40;;;2.45;;
69629;SDS011;56857;52.212;5.496;2023-01-16T13:19:31;4.35;;;2.55;;
69629;SDS011;56857;52.212;5.496;2023-01-16T13:22:20;3.97;;;2.25;;
69629;SDS011;56857;52.212;5.496;2023-01-16T13:24:50;4.28;;;2.10;;
69629;SDS011;56857;52.212;5.496;2023-01-16T13:30:03;3.90;;;2.25;;
69629;SDS011;56857;52.212;5.496;2023-01-16T13:32:37;4.40;;;1.77;;
69629;SDS011;56857;52.212;5.496;2023-01-16T13:35:10;5.25;;;1.90;;
69629;SDS011;56857;52.212;5.496;2023-01-16T13:42:52;3.72;;;2.20;;
69629;SDS011;56857;52.212;5.496;2023-01-16T13:45:29;3.78;;;2.10;;
69629;SDS011;56857;52.212;5.496;2023-01-16T13:47:57;4.18;;;2.10;;
69629;SDS011;56857;52.212;5.496;2023-01-16T13:50:26;3.35;;;1.90;;
69629;SDS011;56857;52.212;5.496;2023-01-16T13:52:54;4.85;;;2.10;;
69629;SDS011;56857;52.212;5.496;2023-01-16T13:57:50;3.20;;;2.03;;
69629;SDS011;56857;52.212;5.496;2023-01-16T14:00:19;3.92;;;2.13;;
69629;SDS011;56857;52.212;5.496;2023-01-16T14:02:45;4.65;;;2.33;;
69629;SDS011;56857;52.212;5.496;2023-01-16T14:08:13;5.25;;;2.38;;
69629;SDS011;56857;52.212;5.496;2023-01-16T14:13:36;4.93;;;2.22;;
69629;SDS011;56857;52.212;5.496;2023-01-16T14:18:40;10.27;;;3.95;;
69629;SDS011;56857;52.212;5.496;2023-01-16T14:21:24;7.43;;;4.15;;
69629;SDS011;56857;52.212;5.496;2023-01-16T14:23:53;5.68;;;2.63;;
69629;SDS011;56857;52.212;5.496;2023-01-16T14:29:26;5.20;;;2.83;;
69629;SDS011;56857;52.212;5.496;2023-01-16T14:34:39;3.65;;;2.90;;
69629;SDS011;56857;52.212;5.496;2023-01-16T14:37:21;8.52;;;4.20;;
69629;SDS011;56857;52.212;5.496;2023-01-16T14:39:50;3.90;;;2.22;;
69629;SDS011;56857;52.212;5.496;2023-01-16T14:42:33;5.00;;;2.80;;
69629;SDS011;56857;52.212;5.496;2023-01-16T14:47:44;4.03;;;2.22;;
69629;SDS011;56857;52.212;5.496;2023-01-16T14:50:12;4.15;;;2.20;;
69629;SDS011;56857;52.212;5.496;2023-01-16T14:55:08;4.00;;;2.13;;
69629;SDS011;56857;52.212;5.496;2023-01-16T14:57:37;5.18;;;3.00;;
69629;SDS011;56857;52.212;5.496;2023-01-16T15:00:07;4.95;;;2.60;;
69629;SDS011;56857;52.212;5.496;2023-01-16T15:02:37;4.97;;;2.72;;
69629;SDS011;56857;52.212;5.496;2023-01-16T15:05:07;5.25;;;2.85;;
69629;SDS011;56857;52.212;5.496;2023-01-16T15:07:44;4.60;;;2.92;;
69629;SDS011;56857;52.212;5.496;2023-01-16T15:10:17;4.88;;;2.50;;
69629;SDS011;56857;52.212;5.496;2023-01-16T15:12:48;7.95;;;2.53;;
69629;SDS011;56857;52.212;5.496;2023-01-16T15:15:27;6.40;;;3.25;;
69629;SDS011;56857;52.212;5.496;2023-01-16T15:17:55;6.25;;;3.95;;
69629;SDS011;56857;52.212;5.496;2023-01-16T15:20:27;7.85;;;2.85;;
69629;SDS011;56857;52.212;5.496;2023-01-16T15:22:54;5.18;;;3.00;;
69629;SDS011;56857;52.212;5.496;2023-01-16T15:31:16;5.05;;;3.28;;
69629;SDS011;56857;52.212;5.496;2023-01-16T15:33:59;6.47;;;3.08;;
69629;SDS011;56857;52.212;5.496;2023-01-16T15:36:31;7.78;;;3.53;;
69629;SDS011;56857;52.212;5.496;2023-01-16T15:38:58;6.18;;;3.05;;
69629;SDS011;56857;52.212;5.496;2023-01-16T15:41:26;7.18;;;3.45;;
69629;SDS011;56857;52.212;5.496;2023-01-16T15:43:54;7.80;;;3.40;;
69629;SDS011;56857;52.212;5.496;2023-01-16T15:46:26;7.38;;;3.63;;
69629;SDS011;56857;52.212;5.496;2023-01-16T15:52:01;6.47;;;2.88;;
69629;SDS011;56857;52.212;5.496;2023-01-16T15:54:27;6.10;;;3.25;;
69629;SDS011;56857;52.212;5.496;2023-01-16T15:57:02;7.13;;;3.15;;
69629;SDS011;56857;52.212;5.496;2023-01-16T15:59:28;7.53;;;4.18;;
69629;SDS011;56857;52.212;5.496;2023-01-16T16:02:40;6.93;;;3.40;;
69629;SDS011;56857;52.212;5.496;2023-01-16T16:04:49;7.45;;;3.47;;
69629;SDS011;56857;52.212;5.496;2023-01-16T16:07:19;6.85;;;3.72;;
69629;SDS011;56857;52.212;5.496;2023-01-16T16:09:47;8.13;;;5.38;;
69629;SDS011;56857;52.212;5.496;2023-01-16T16:12:21;8.23;;;4.50;;
69629;SDS011;56857;52.212;5.496;2023-01-16T16:15:02;6.95;;;3.83;;
69629;SDS011;56857;52.212;5.496;2023-01-16T16:17:44;6.07;;;3.13;;
69629;SDS011;56857;52.212;5.496;2023-01-16T16:20:35;6.05;;;3.38;;
69629;SDS011;56857;52.212;5.496;2023-01-16T16:23:14;8.23;;;3.47;;
69629;SDS011;56857;52.212;5.496;2023-01-16T16:25:56;5.80;;;3.20;;
69629;SDS011;56857;52.212;5.496;2023-01-16T16:36:38;8.15;;;4.45;;
69629;SDS011;56857;52.212;5.496;2023-01-16T16:39:16;7.35;;;3.90;;
69629;SDS011;56857;52.212;5.496;2023-01-16T16:42:00;9.85;;;4.00;;
69629;SDS011;56857;52.212;5.496;2023-01-16T16:44:47;8.07;;;4.05;;
69629;SDS011;56857;52.212;5.496;2023-01-16T16:47:30;7.80;;;3.97;;
69629;SDS011;56857;52.212;5.496;2023-01-16T16:49:57;5.95;;;3.22;;
69629;SDS011;56857;52.212;5.496;2023-01-16T16:52:27;5.45;;;3.58;;
69629;SDS011;56857;52.212;5.496;2023-01-16T16:55:02;6.47;;;3.63;;
69629;SDS011;56857;52.212;5.496;2023-01-16T16:57:33;6.13;;;3.78;;
69629;SDS011;56857;52.212;5.496;2023-01-16T17:00:06;7.80;;;3.60;;
69629;SDS011;56857;52.212;5.496;2023-01-16T17:02:38;7.43;;;3.80;;
69629;SDS011;56857;52.212;5.496;2023-01-16T17:05:04;7.43;;;5.00;;
69629;SDS011;56857;52.212;5.496;2023-01-16T17:07:30;7.05;;;4.63;;
69629;SDS011;56857;52.212;5.496;2023-01-16T17:09:58;9.10;;;4.88;;
69629;SDS011;56857;52.212;5.496;2023-01-16T17:12:24;7.55;;;4.70;;
69629;SDS011;56857;52.212;5.496;2023-01-16T17:14:50;8.98;;;5.05;;
69629;SDS011;56857;52.212;5.496;2023-01-16T17:17:18;8.23;;;5.32;;
69629;SDS011;56857;52.212;5.496;2023-01-16T17:19:46;9.73;;;6.00;;
69629;SDS011;56857;52.212;5.496;2023-01-16T17:22:11;10.23;;;6.22;;
69629;SDS011;56857;52.212;5.496;2023-01-16T17:24:38;11.75;;;7.25;;
69629;SDS011;56857;52.212;5.496;2023-01-16T17:27:04;12.38;;;8.38;;
69629;SDS011;56857;52.212;5.496;2023-01-16T17:29:30;12.73;;;7.47;;
69629;SDS011;56857;52.212;5.496;2023-01-16T17:31:55;11.75;;;8.63;;
69629;SDS011;56857;52.212;5.496;2023-01-16T17:34:23;11.68;;;7.55;;
69629;SDS011;56857;52.212;5.496;2023-01-16T17:36:49;11.60;;;7.95;;
69629;SDS011;56857;52.212;5.496;2023-01-16T17:39:14;9.85;;;6.53;;
69629;SDS011;56857;52.212;5.496;2023-01-16T17:41:40;8.85;;;5.30;;
69629;SDS011;56857;52.212;5.496;2023-01-16T17:46:42;9.20;;;5.82;;
69629;SDS011;56857;52.212;5.496;2023-01-16T17:49:07;9.52;;;6.20;;
69629;SDS011;56857;52.212;5.496;2023-01-16T17:51:33;8.65;;;6.00;;
69629;SDS011;56857;52.212;5.496;2023-01-16T17:53:58;8.80;;;5.47;;